Time;durP1;ratioP1;P1;durP2;ratioP2;P2;SDS_P1;SDS_P2;PMS_P1;PMS_P2;Temp;Humidity;BMP_temperature;BMP_pressure;BME280_temperature;BME280_humidity;BME280_pressure;Samples;Min_cycle;Max_cycle;Signal;HPM_P1;HPM_P2
2023/05/08 00:00:27;;;;;;;18.52;11.60;;;;;;;14.97;100.00;100082.91;12197760;19;20082;-82
2023/05/08 00:04:29;;;;;;;18.67;10.23;;;;;;;14.97;100.00;100077.34;12221887;19;20479;-82
2023/05/08 00:08:31;;;;;;;16.42;10.65;;;;;;;14.98;100.00;100086.50;12221282;19;20006;-81
2023/05/08 00:12:33;;;;;;;16.30;10.37;;;;;;;14.97;100.00;100091.22;12198005;19;20010;-81
2023/05/08 00:16:36;;;;;;;20.02;11.30;;;;;;;14.92;100.00;100082.88;12217043;19;20383;-83
2023/05/08 00:20:38;;;;;;;18.85;11.52;;;;;;;14.92;100.00;100080.09;12221783;19;20570;-82
2023/05/08 00:24:40;;;;;;;19.20;11.80;;;;;;;14.90;100.00;100085.09;12200228;19;20040;-81
2023/05/08 00:28:42;;;;;;;;;;;;;;;14.85;100.00;100079.53;12222894;19;20010;-82
2023/05/08 00:32:45;;;;;;;22.25;11.90;;;;;;;14.80;100.00;100082.28;12218001;19;19925;-82
2023/05/08 00:36:47;;;;;;;22.20;13.68;;;;;;;14.79;100.00;100089.75;12197670;19;20007;-80
2023/05/08 00:40:49;;;;;;;21.08;13.57;;;;;;;14.77;100.00;100088.38;12218835;19;20003;-80
2023/05/08 00:44:51;;;;;;;24.80;14.27;;;;;;;14.76;100.00;100087.53;12214765;19;22395;-82
2023/05/08 00:48:53;;;;;;;22.23;12.82;;;;;;;14.78;100.00;100090.03;12193253;19;20037;-81
2023/05/08 00:52:57;;;;;;;22.48;12.73;;;;;;;14.79;100.00;100092.53;12215078;19;20006;-80
2023/05/08 00:57:00;;;;;;;25.48;12.98;;;;;;;14.78;100.00;100090.88;12217036;19;20024;-83
2023/05/08 01:01:03;;;;;;;21.25;12.55;;;;;;;14.77;100.00;100094.75;12193356;19;20462;-80
2023/05/08 01:05:07;;;;;;;23.35;13.55;;;;;;;14.78;100.00;100090.03;12217763;19;20014;-82
2023/05/08 01:09:08;;;;;;;21.05;13.05;;;;;;;14.78;100.00;100095.56;12221219;19;20014;-81
2023/05/08 01:13:38;;;;;;;22.90;13.38;;;;;;;14.74;100.00;100100.00;12197858;19;20021;-81
2023/05/08 01:17:56;;;;;;;22.05;13.43;;;;;;;14.66;100.00;100098.56;12217796;19;20021;-81
2023/05/08 01:22:10;;;;;;;23.77;12.75;;;;;;;14.64;100.00;100099.97;12198130;19;20006;-81
2023/05/08 01:26:13;;;;;;;20.83;13.23;;;;;;;14.62;100.00;100105.75;12218364;19;20110;-81
2023/05/08 01:30:32;;;;;;;21.17;11.60;;;;;;;14.62;100.00;100107.72;12217578;19;20491;-80
2023/05/08 01:34:43;;;;;;;20.02;12.07;;;;;;;14.62;100.00;100108.53;12197671;19;20007;-82
2023/05/08 01:39:10;;;;;;;22.25;12.75;;;;;;;14.67;100.00;100104.97;12217280;19;20007;-80
2023/05/08 01:43:24;;;;;;;22.60;12.90;;;;;;;14.68;100.00;100115.78;12196422;19;20030;-82
2023/05/08 01:47:32;;;;;;;20.92;12.52;;;;;;;14.66;100.00;100108.81;12211321;19;20011;-80
2023/05/08 01:51:42;;;;;;;19.15;12.18;;;;;;;14.66;100.00;100111.59;12192167;19;20110;-80
2023/05/08 01:55:48;;;;;;;20.00;11.77;;;;;;;14.63;100.00;100112.97;12215094;19;20010;-82
2023/05/08 01:59:54;;;;;;;24.10;12.38;;;;;;;14.62;100.00;100104.94;12208983;19;20005;-78
2023/05/08 02:03:57;;;;;;;19.27;11.98;;;;;;;14.62;100.00;100108.53;12192265;19;20011;-79
2023/05/08 02:08:00;;;;;;;19.33;11.38;;;;;;;14.61;100.00;100120.75;12226880;19;20031;-81
2023/05/08 02:12:06;;;;;;;15.05;10.70;;;;;;;14.57;100.00;100112.13;12230332;19;20101;-84
2023/05/08 02:16:10;;;;;;;17.25;11.40;;;;;;;14.57;100.00;100112.13;12210021;19;20062;-81
2023/05/08 02:20:14;;;;;;;16.38;10.38;;;;;;;14.57;100.00;100116.81;12228231;19;20035;-81
2023/05/08 02:24:18;;;;;;;22.15;11.80;;;;;;;14.52;100.00;100128.75;12224552;19;20640;-81
2023/05/08 02:28:21;;;;;;;;;;;;;;;14.49;100.00;100126.47;12210712;19;20030;-82
2023/05/08 02:32:25;;;;;;;14.10;9.05;;;;;;;14.48;100.00;100127.56;12220292;19;19919;-80
2023/05/08 02:36:31;;;;;;;17.92;10.18;;;;;;;14.45;100.00;100119.78;12209995;19;20090;-82
2023/05/08 02:40:39;;;;;;;14.23;9.93;;;;;;;14.43;100.00;100124.78;12234570;19;20043;-82
2023/05/08 02:44:41;;;;;;;13.70;9.48;;;;;;;14.38;100.00;100124.72;12236005;19;20014;-81
2023/05/08 02:49:02;;;;;;;18.40;9.35;;;;;;;14.34;100.00;100126.38;12206834;19;20817;-81
2023/05/08 02:53:10;;;;;;;14.23;9.52;;;;;;;14.30;100.00;100128.00;12231909;19;20017;-82
2023/05/08 02:57:26;;;;;;;16.23;9.32;;;;;;;14.24;100.00;100129.88;12226811;19;20010;-82
2023/05/08 03:01:36;;;;;;;15.15;8.38;;;;;;;14.18;100.00;100124.59;12205661;19;20082;-82
2023/05/08 03:05:46;;;;;;;18.90;9.48;;;;;;;14.16;100.00;100126.78;12227132;19;20041;-81
2023/05/08 03:09:54;;;;;;;11.32;7.97;;;;;;;14.13;100.00;100123.47;12211657;19;20040;-82
2023/05/08 03:14:01;;;;;;;14.68;8.93;;;;;;;14.12;100.00;100116.22;12229497;19;20014;-85
2023/05/08 03:18:11;;;;;;;11.77;8.55;;;;;;;14.07;100.00;100118.97;12226961;19;20464;-83
2023/05/08 03:22:15;;;;;;;13.55;8.02;;;;;;;14.04;100.00;100115.88;12207247;19;20014;-82
2023/05/08 03:26:21;;;;;;;15.20;9.23;;;;;;;14.01;100.00;100117.28;12228322;19;20021;-82
2023/05/08 03:30:25;;;;;;;14.07;7.90;;;;;;;13.99;100.00;100115.88;12208004;19;20015;-81
2023/05/08 03:34:39;;;;;;;12.52;7.35;;;;;;;13.96;100.00;100114.47;12230700;19;20014;-83
2023/05/08 03:38:42;;;;;;;11.05;8.23;;;;;;;13.89;100.00;100116.59;12231633;19;20007;-84
2023/05/08 03:42:46;;;;;;;11.63;7.65;;;;;;;13.86;100.00;100114.34;12205904;19;20022;-84
2023/05/08 03:46:55;;;;;;;11.68;7.70;;;;;;;13.83;100.00;100114.88;12225172;19;20088;-83
2023/05/08 03:51:02;;;;;;;14.32;8.05;;;;;;;13.82;100.00;100116.00;12229910;19;20036;-82
2023/05/08 03:55:06;;;;;;;13.77;7.65;;;;;;;13.76;100.00;100117.06;12206023;19;20003;-84
2023/05/08 03:59:35;;;;;;;14.32;8.25;;;;;;;13.73;100.00;100123.13;12228659;19;20486;-82
2023/05/08 04:04:03;;;;;;;13.68;8.60;;;;;;;13.68;100.00;100119.22;12200028;19;20007;-83
2023/05/08 04:08:15;;;;;;;14.27;8.27;;;;;;;13.68;100.00;100123.88;12218436;19;20017;-84
2023/05/08 04:12:48;;;;;;;12.18;8.38;;;;;;;13.64;100.00;100125.53;12225429;19;20010;-83
2023/05/08 04:16:55;;;;;;;14.30;8.35;;;;;;;13.62;100.00;100133.25;12228239;19;20007;-82
2023/05/08 04:21:00;;;;;;;11.25;8.38;;;;;;;13.63;100.00;100130.22;12220225;19;20007;-82
2023/05/08 04:25:07;;;;;;;12.90;7.88;;;;;;;13.65;100.00;100144.66;12202253;19;20007;-83
2023/05/08 04:29:11;;;;;;;13.88;7.82;;;;;;;13.64;100.00;100148.50;12213830;19;19999;-81
2023/05/08 04:33:17;;;;;;;11.82;7.72;;;;;;;13.64;100.00;100154.03;12220868;19;20499;-83
2023/05/08 04:37:27;;;;;;;12.43;8.10;;;;;;;13.66;100.00;100168.47;12198334;19;20081;-82
2023/05/08 04:41:34;;;;;;;10.50;7.85;;;;;;;13.66;100.00;100171.25;12226298;19;20506;-82
2023/05/08 04:45:36;;;;;;;12.43;8.18;;;;;;;13.68;100.00;100177.38;12205105;19;20364;-82
2023/05/08 04:49:42;;;;;;;13.82;8.80;;;;;;;13.67;100.00;100180.38;12225603;19;20003;-83
2023/05/08 04:53:46;;;;;;;12.25;7.95;;;;;;;13.65;100.00;100177.88;12225194;19;20006;-83
2023/05/08 04:57:48;;;;;;;14.05;7.97;;;;;;;13.66;100.00;100179.56;12200308;19;20072;-82
2023/05/08 05:01:53;;;;;;;13.50;9.18;;;;;;;13.69;100.00;100180.97;12224495;19;20010;-83
2023/05/08 05:06:00;;;;;;;17.48;8.40;;;;;;;13.70;100.00;100190.09;12218538;19;20051;-81
2023/05/08 05:10:04;;;;;;;15.70;8.98;;;;;;;13.72;100.00;100190.69;12202171;19;20018;-82
2023/05/08 05:14:07;;;;;;;13.75;8.80;;;;;;;13.74;100.00;100185.69;12225239;19;20038;-82
2023/05/08 05:18:11;;;;;;;16.27;10.90;;;;;;;13.78;100.00;100181.34;12228600;19;20006;-82
2023/05/08 05:22:17;;;;;;;12.48;8.18;;;;;;;13.79;100.00;100177.47;12206300;19;20028;-82
2023/05/08 05:26:20;;;;;;;12.65;8.38;;;;;;;13.80;100.00;100185.53;12227462;19;20013;-81
2023/05/08 05:30:24;;;;;;;14.40;9.57;;;;;;;13.81;100.00;100183.59;12204407;19;20014;-81
2023/05/08 05:34:30;;;;;;;12.68;8.05;;;;;;;13.80;100.00;100185.53;12223238;19;20006;-82
2023/05/08 05:38:33;;;;;;;13.80;8.07;;;;;;;13.76;100.00;100189.06;12219458;19;20006;-81
2023/05/08 05:42:38;;;;;;;10.52;7.88;;;;;;;13.80;100.00;100195.72;12215564;19;20002;-82
2023/05/08 05:46:44;;;;;;;11.00;7.63;;;;;;;13.83;100.00;100201.63;12236426;19;20023;-83
2023/05/08 05:50:54;;;;;;;11.52;8.02;;;;;;;13.86;100.00;100203.00;12253685;19;20010;-83
2023/05/08 05:55:02;;;;;;;10.68;7.45;;;;;;;13.89;100.00;100199.69;12233631;19;20131;-80
2023/05/08 05:59:04;;;;;;;11.75;8.07;;;;;;;13.90;100.00;100201.38;12245087;19;20124;-81
2023/05/08 06:03:09;;;;;;;10.73;7.40;;;;;;;13.97;100.00;100206.72;12241146;19;20366;-81
2023/05/08 06:07:16;;;;;;;12.15;7.68;;;;;;;14.03;100.00;100203.72;12218863;19;20003;-81
2023/05/08 06:11:21;;;;;;;10.98;8.13;;;;;;;14.09;100.00;100208.19;12246909;19;20006;-83
2023/05/08 06:15:29;;;;;;;10.70;7.72;;;;;;;14.08;100.00;100203.78;12223416;19;20014;-81
2023/05/08 06:19:32;;;;;;;12.32;8.05;;;;;;;14.06;100.00;100214.28;12238820;19;20626;-82
2023/05/08 06:23:39;;;;;;;12.20;7.75;;;;;;;14.05;100.00;100222.88;12243106;19;20002;-82
2023/05/08 06:27:47;;;;;;;11.95;7.88;;;;;;;14.05;100.00;100220.94;12230727;19;20011;-82
2023/05/08 06:31:54;;;;;;;14.23;8.68;;;;;;;14.03;100.00;100225.88;12249054;19;20456;-82
2023/05/08 06:36:11;;;;;;;;;;;;;;;;;;;;;
2023/05/08 06:40:12;;;;;;;13.85;8.63;;;;;;;14.07;100.00;100229.81;12223719;19;20007;-82
2023/05/08 06:44:16;;;;;;;12.00;7.80;;;;;;;14.07;100.00;100238.13;12224781;19;20078;-82
2023/05/08 06:48:27;;;;;;;12.10;7.77;;;;;;;14.11;100.00;100233.72;12244249;19;20048;-80
2023/05/08 06:52:35;;;;;;;13.23;8.30;;;;;;;14.18;100.00;100232.66;12249693;19;20337;-81
2023/05/08 06:56:41;;;;;;;12.00;8.20;;;;;;;14.21;100.00;100241.28;12223771;19;20082;-82
2023/05/08 07:00:47;;;;;;;12.38;7.75;;;;;;;14.25;100.00;100234.13;12179640;19;20029;-83
2023/05/08 07:05:02;;;;;;;12.80;8.23;;;;;;;14.32;100.00;100237.50;12239029;19;20070;-82
2023/05/08 07:09:12;;;;;;;12.40;7.97;;;;;;;14.39;100.00;100233.69;12235712;19;20010;-81
2023/05/08 07:13:22;;;;;;;12.93;8.77;;;;;;;14.49;100.00;100242.94;12227314;19;20014;-82
2023/05/08 07:17:29;;;;;;;13.10;9.15;;;;;;;14.58;100.00;100235.81;12252477;19;20007;-82
2023/05/08 07:21:46;;;;;;;12.70;7.40;;;;;;;14.71;100.00;100245.59;12227850;19;20010;-83
2023/05/08 07:26:25;;;;;;;11.27;8.15;;;;;;;14.78;100.00;100239.81;12252483;19;20002;-83
2023/05/08 07:31:28;;;;;;;12.45;7.80;;;;;;;14.98;100.00;100239.94;12180561;19;20011;-82
2023/05/08 07:46:29;;;;;;;11.45;7.68;;;;;;;16.24;100.00;100256.53;12190430;19;20010;-84
2023/05/08 08:24:32;;;;;;;10.70;7.70;;;;;;;17.88;100.00;100253.44;12207965;19;20482;-81
2023/05/08 08:28:35;;;;;;;10.43;7.53;;;;;;;17.85;100.00;100256.78;12219409;19;20017;-84
2023/05/08 08:32:40;;;;;;;10.98;7.88;;;;;;;17.84;100.00;100250.34;12199295;19;20667;-84
2023/05/08 08:36:42;;;;;;;;;;;;;;;17.84;100.00;100250.34;12208318;19;20027;-81
2023/05/08 08:40:45;;;;;;;11.13;7.72;;;;;;;18.09;100.00;100249.38;12214253;19;19910;-82
2023/05/08 08:44:50;;;;;;;11.02;8.20;;;;;;;18.25;100.00;100247.31;12214539;19;20506;-82
2023/05/08 08:48:55;;;;;;;;;;;;;;;18.18;100.00;100255.19;12192635;19;20029;-83
2023/05/08 08:53:09;;;;;;;13.10;7.45;;;;;;;18.10;100.00;100245.47;12213210;19;19914;-82
2023/05/08 08:57:13;;;;;;;11.13;7.43;;;;;;;18.12;100.00;100261.91;12219156;19;20018;-81
2023/05/08 09:01:18;;;;;;;11.18;8.13;;;;;;;18.19;100.00;100260.44;12195873;19;20015;-82
2023/05/08 09:05:25;;;;;;;10.52;7.22;;;;;;;18.14;100.00;100260.47;12213585;19;20007;-82
2023/05/08 09:09:28;;;;;;;10.02;7.47;;;;;;;18.02;100.00;100267.53;12189594;19;20032;-83
2023/05/08 09:13:34;;;;;;;12.27;8.48;;;;;;;17.66;100.00;100276.91;12210821;19;20505;-83
2023/05/08 09:17:36;;;;;;;13.88;8.50;;;;;;;17.50;100.00;100276.13;12212449;19;20011;-83
2023/05/08 09:21:38;;;;;;;11.27;7.93;;;;;;;17.38;100.00;100274.81;12191539;19;20011;-82
2023/05/08 09:25:43;;;;;;;10.57;7.93;;;;;;;17.37;100.00;100278.69;12213153;19;20010;-82
2023/05/08 09:29:57;;;;;;;13.90;8.40;;;;;;;17.31;100.00;100281.50;12212169;19;20003;-82
2023/05/08 09:34:02;;;;;;;12.75;8.68;;;;;;;17.35;100.00;100276.19;12186874;19;20030;-82
2023/05/08 09:38:04;;;;;;;10.75;8.63;;;;;;;17.50;100.00;100276.13;12214302;19;20007;-82
2023/05/08 09:42:06;;;;;;;11.57;8.13;;;;;;;17.57;100.00;100288.94;12210804;19;20014;-82
2023/05/08 09:46:22;;;;;;;13.55;8.52;;;;;;;17.59;100.00;100293.09;12190869;19;20090;-82
2023/05/08 09:50:25;;;;;;;10.88;8.10;;;;;;;17.65;100.00;100296.72;12213857;19;20011;-83
2023/05/08 09:54:31;;;;;;;10.43;7.75;;;;;;;17.79;100.00;100296.94;12188837;19;20022;-82
2023/05/08 09:58:40;;;;;;;13.02;8.30;;;;;;;17.87;100.00;100304.72;12219748;19;20014;-82
2023/05/08 10:02:54;;;;;;;11.40;7.80;;;;;;;17.97;100.00;100299.94;12219718;19;20010;-82
2023/05/08 10:06:57;;;;;;;13.20;7.97;;;;;;;18.15;100.00;100298.44;12196397;19;20814;-82
2023/05/08 10:11:13;;;;;;;12.73;8.93;;;;;;;18.39;100.00;100298.53;12212381;19;20018;-83
2023/05/08 10:15:15;;;;;;;11.85;8.38;;;;;;;18.45;100.00;100307.72;12214790;19;20003;-83
2023/05/08 10:19:27;;;;;;;13.70;8.57;;;;;;;18.62;100.00;100301.69;12194235;19;20067;-85
2023/05/08 10:23:33;;;;;;;12.07;8.82;;;;;;;18.74;100.00;100295.78;12215647;19;20018;-83
2023/05/08 10:27:58;;;;;;;12.32;8.43;;;;;;;19.12;97.98;100300.44;12201245;19;20362;-83
2023/05/08 10:32:07;;;;;;;12.02;8.77;;;;;;;19.56;99.39;100295.78;12220974;19;20010;-83
2023/05/08 10:36:12;;;;;;;12.13;8.43;;;;;;;20.06;95.98;100293.47;12223814;19;20344;-83
2023/05/08 10:40:20;;;;;;;11.25;8.30;;;;;;;20.64;93.23;100295.13;12200998;19;20420;-84
2023/05/08 10:44:24;;;;;;;12.25;8.25;;;;;;;21.19;87.87;100286.88;12222807;19;20006;-83
2023/05/08 10:48:41;;;;;;;11.57;7.65;;;;;;;21.76;85.47;100281.00;12204303;19;20014;-83
2023/05/08 10:52:53;;;;;;;12.02;8.43;;;;;;;21.85;83.99;100279.13;12222194;19;20010;-83
2023/05/08 10:57:11;;;;;;;20.13;8.63;;;;;;;22.11;81.86;100279.38;12220698;19;20409;-83
2023/05/08 11:01:17;;;;;;;11.77;7.70;;;;;;;22.04;82.28;100281.78;12200247;19;20010;-82
2023/05/08 11:05:27;;;;;;;11.05;8.73;;;;;;;21.99;79.76;100287.50;12220443;19;20031;-84
2023/05/08 11:09:41;;;;;;;10.98;8.40;;;;;;;21.47;79.81;100279.34;12211340;19;20067;-83
2023/05/08 11:14:18;;;;;;;12.02;8.63;;;;;;;20.77;84.48;100276.72;12235214;19;20010;-84
2023/05/08 11:18:23;;;;;;;12.27;8.40;;;;;;;20.27;87.47;100280.00;12207702;19;20018;-84
2023/05/08 11:22:29;;;;;;;10.70;8.63;;;;;;;19.87;91.68;100278.63;12225169;19;20022;-84
2023/05/08 11:26:39;;;;;;;10.75;8.75;;;;;;;19.65;93.88;100276.41;12225203;19;20007;-85
2023/05/08 11:30:46;;;;;;;14.35;9.30;;;;;;;19.57;94.61;100275.06;12202815;19;20031;-83
2023/05/08 11:34:50;;;;;;;12.52;9.98;;;;;;;19.41;95.74;100277.22;12226968;19;20047;-84
2023/05/08 11:39:06;;;;;;;14.27;9.37;;;;;;;19.35;97.78;100275.63;12225422;19;20017;-84
2023/05/08 11:43:32;;;;;;;11.05;9.43;;;;;;;19.40;97.20;100272.78;12203490;19;20084;-83
2023/05/08 11:47:38;;;;;;;12.70;10.07;;;;;;;19.82;95.29;100270.31;12225331;19;20015;-83
2023/05/08 11:51:43;;;;;;;11.48;8.77;;;;;;;20.53;93.58;100274.06;12202471;19;20109;-82
2023/05/08 11:55:51;;;;;;;12.43;9.45;;;;;;;21.61;87.18;100262.53;12222920;19;20010;-83
2023/05/08 11:59:53;;;;;;;12.35;8.85;;;;;;;22.69;81.17;100253.28;12223733;19;20018;-83
2023/05/08 12:04:01;;;;;;;12.52;9.45;;;;;;;23.35;75.28;100263.91;12196630;19;20007;-83
2023/05/08 12:08:08;;;;;;;13.13;9.73;;;;;;;23.03;73.73;100260.31;12222099;19;20053;-82
2023/05/08 12:12:10;;;;;;;11.50;9.30;;;;;;;23.02;76.50;100271.84;12221814;19;20011;-83
2023/05/08 12:16:12;;;;;;;12.50;10.00;;;;;;;22.69;75.14;100266.50;12199901;19;20486;-83
2023/05/08 12:20:16;;;;;;;11.68;10.07;;;;;;;22.33;78.80;100263.75;12222375;19;20015;-84
2023/05/08 12:24:22;;;;;;;12.75;10.18;;;;;;;22.22;77.57;100269.63;12197251;19;20007;-83
2023/05/08 12:28:24;;;;;;;13.40;10.32;;;;;;;21.89;77.71;100271.72;12219641;19;20031;-83
2023/05/08 12:32:26;;;;;;;14.43;9.97;;;;;;;21.66;79.88;100270.84;12218750;19;20007;-83
2023/05/08 12:36:35;;;;;;;15.00;11.32;;;;;;;21.50;80.91;100267.50;12200278;19;20014;-84
2023/05/08 12:40:47;;;;;;;13.50;10.18;;;;;;;21.53;81.63;100266.88;12220972;19;20490;-83
2023/05/08 12:44:53;;;;;;;16.02;10.27;;;;;;;21.24;82.58;100275.56;12220552;19;20010;-81
2023/05/08 12:49:03;;;;;;;14.32;10.15;;;;;;;21.10;84.13;100272.75;12194910;19;20010;-81
2023/05/08 12:53:17;;;;;;;12.35;9.15;;;;;;;20.82;86.40;100265.41;12217021;19;20025;-80
2023/05/08 12:57:21;;;;;;;14.80;10.73;;;;;;;20.45;87.90;100272.75;12202141;19;20026;-81
2023/05/08 13:01:25;;;;;;;13.43;10.27;;;;;;;20.04;90.70;100263.00;12218514;19;20411;-82
2023/05/08 13:05:26;;;;;;;15.73;8.87;;;;;;;19.80;92.82;100267.81;12220033;19;20375;-81
2023/05/08 13:09:28;;;;;;;15.20;10.13;;;;;;;19.68;94.57;100271.03;12197645;19;20509;-81
2023/05/08 13:13:33;;;;;;;18.42;11.18;;;;;;;19.46;95.33;100268.78;12215903;19;20029;-81
2023/05/08 13:17:35;;;;;;;13.10;9.73;;;;;;;19.36;97.54;100257.72;12216755;19;20007;-81
2023/05/08 13:21:38;;;;;;;12.63;9.77;;;;;;;19.30;98.46;100261.69;12199023;19;20015;-82
2023/05/08 13:25:42;;;;;;;13.20;10.25;;;;;;;19.23;100.00;100258.44;12221708;19;20082;-81
2023/05/08 13:29:46;;;;;;;14.73;10.05;;;;;;;19.22;100.00;100249.22;12221994;19;20010;-80
2023/05/08 13:33:49;;;;;;;14.35;9.95;;;;;;;19.22;100.00;100251.19;12197196;19;20066;-82
2023/05/08 13:37:52;;;;;;;15.45;10.60;;;;;;;19.11;100.00;100259.66;12224043;19;20003;-81
2023/05/08 13:41:53;;;;;;;13.45;10.30;;;;;;;19.00;100.00;100255.31;12221378;19;20018;-80
2023/05/08 13:45:57;;;;;;;14.45;10.05;;;;;;;18.93;100.00;100259.59;12199993;19;20024;-79
2023/05/08 13:50:01;;;;;;;14.48;10.18;;;;;;;18.82;100.00;100254.09;12225519;19;20091;-80
2023/05/08 13:54:06;;;;;;;13.52;10.25;;;;;;;18.81;100.00;100254.41;12224742;19;20466;-80
2023/05/08 13:58:09;;;;;;;;;;;;;;;18.71;100.00;100246.09;12200931;19;20589;-80
2023/05/08 14:02:11;;;;;;;14.85;9.35;;;;;;;18.58;100.00;100247.59;12227264;19;19911;-80
2023/05/08 14:06:15;;;;;;;12.15;9.40;;;;;;;18.50;100.00;100254.66;12234624;19;20006;-80
2023/05/08 14:10:17;;;;;;;13.57;9.17;;;;;;;18.45;100.00;100251.91;12212176;19;20006;-81
2023/05/08 14:14:18;;;;;;;12.73;9.13;;;;;;;18.36;100.00;100243.31;12229263;19;20018;-82
2023/05/08 14:18:25;;;;;;;12.20;9.63;;;;;;;18.29;100.00;100236.41;12209248;19;20010;-81
2023/05/08 14:22:30;;;;;;;12.75;9.23;;;;;;;18.18;100.00;100232.88;12230008;19;20014;-81
2023/05/08 14:26:34;;;;;;;11.50;8.65;;;;;;;18.11;100.00;100227.59;12225103;19;20007;-81
2023/05/08 14:30:35;;;;;;;12.02;8.23;;;;;;;18.14;100.00;100234.56;12212143;19;20010;-79
2023/05/08 14:34:40;;;;;;;13.02;8.80;;;;;;;18.16;100.00;100233.16;12230940;19;20019;-81
2023/05/08 14:38:44;;;;;;;11.00;8.10;;;;;;;18.22;100.00;100228.38;12231612;19;20002;-81
2023/05/08 14:42:46;;;;;;;13.83;9.13;;;;;;;18.20;100.00;100228.66;12206438;19;20011;-83
2023/05/08 14:46:47;;;;;;;12.63;8.63;;;;;;;18.17;100.00;100225.59;12229600;19;20011;-83
2023/05/08 14:50:51;;;;;;;13.77;9.57;;;;;;;18.10;100.00;100227.91;12232595;19;20010;-80
2023/05/08 14:54:54;;;;;;;15.63;9.25;;;;;;;18.06;100.00;100224.88;12204251;19;20003;-82
2023/05/08 14:58:57;;;;;;;12.70;8.68;;;;;;;17.98;100.00;100215.16;12233622;19;20011;-82
2023/05/08 15:03:01;;;;;;;10.75;8.45;;;;;;;17.95;100.00;100217.69;12228038;19;20082;-81
2023/05/08 15:07:05;;;;;;;12.02;8.70;;;;;;;17.84;100.00;100200.19;12204022;19;20033;-80
2023/05/08 15:11:10;;;;;;;13.55;8.75;;;;;;;17.89;100.00;100204.91;12224250;19;20916;-80
2023/05/08 15:15:12;;;;;;;14.38;9.00;;;;;;;17.92;100.00;100205.16;12217584;19;20011;-80
2023/05/08 15:19:16;;;;;;;12.68;9.60;;;;;;;17.84;100.00;100204.94;12199857;19;20010;-80
2023/05/08 15:23:19;;;;;;;13.40;8.93;;;;;;;17.87;100.00;100204.34;12223893;19;20188;-81
2023/05/08 15:27:21;;;;;;;;;;;;;;;17.74;100.00;100201.06;12206698;19;20035;-82
2023/05/08 15:31:25;;;;;;;11.82;8.95;;;;;;;17.70;100.00;100199.97;12228132;19;19907;-81
2023/05/08 15:35:27;;;;;;;12.00;8.73;;;;;;;17.68;100.00;100202.22;12230768;19;20046;-82
2023/05/08 15:39:33;;;;;;;13.18;8.88;;;;;;;17.69;100.00;100201.06;12207388;19;19999;-82
2023/05/08 15:43:36;;;;;;;12.02;9.15;;;;;;;17.69;100.00;100209.44;12226125;19;20027;-80
2023/05/08 15:47:38;;;;;;;12.32;9.02;;;;;;;17.74;100.00;100206.63;12224103;19;20010;-81
2023/05/08 15:51:39;;;;;;;11.25;8.98;;;;;;;17.88;100.00;100209.66;12204113;19;20027;-81
2023/05/08 15:55:43;;;;;;;12.77;8.88;;;;;;;18.07;100.00;100204.22;12232437;19;20833;-80
2023/05/08 15:59:45;;;;;;;12.80;8.73;;;;;;;18.15;100.00;100211.13;12223085;19;20009;-81
2023/05/08 16:03:47;;;;;;;11.77;7.83;;;;;;;18.18;100.00;100214.16;12206034;19;20340;-81
2023/05/08 16:07:50;;;;;;;15.30;10.00;;;;;;;18.21;100.00;100216.38;12229488;19;20346;-81
2023/05/08 16:11:53;;;;;;;12.00;8.35;;;;;;;18.29;100.00;100214.91;12229870;19;20006;-82
2023/05/08 16:16:03;;;;;;;11.98;7.75;;;;;;;18.42;100.00;100221.78;12205520;19;20006;-81
2023/05/08 16:20:11;;;;;;;11.57;8.25;;;;;;;18.45;100.00;100221.22;12222226;19;20034;-80
2023/05/08 16:24:13;;;;;;;10.65;8.30;;;;;;;18.34;100.00;100220.44;12228663;19;20474;-82
2023/05/08 16:28:16;;;;;;;11.70;8.18;;;;;;;18.28;100.00;100212.44;12205539;19;20007;-81
2023/05/08 16:32:20;;;;;;;12.25;8.55;;;;;;;18.21;100.00;100207.19;12228767;19;20502;-81
2023/05/08 16:36:25;;;;;;;13.63;8.43;;;;;;;18.14;100.00;100207.50;12211675;19;20006;-81
2023/05/08 16:40:28;;;;;;;10.65;7.25;;;;;;;18.14;100.00;100196.34;12236517;19;20015;-80
2023/05/08 16:44:30;;;;;;;13.20;7.82;;;;;;;18.21;100.00;100190.44;12251875;19;20013;-82
2023/05/08 16:48:33;;;;;;;10.45;7.63;;;;;;;18.35;100.00;100194.25;12222318;19;20010;-81
2023/05/08 16:52:37;;;;;;;12.10;8.25;;;;;;;18.61;100.00;100188.41;12240170;19;20030;-81
2023/05/08 16:56:40;;;;;;;14.57;7.95;;;;;;;18.95;100.00;100188.38;12239541;19;20025;-82
2023/05/08 17:00:41;;;;;;;10.98;7.95;;;;;;;19.18;100.00;100185.84;12211527;19;20478;-82
2023/05/08 17:04:47;;;;;;;13.13;8.48;;;;;;;19.41;100.00;100192.56;12232591;19;20003;-82
2023/05/08 17:08:51;;;;;;;13.82;7.72;;;;;;;19.45;100.00;100185.22;12240408;19;20017;-82
2023/05/08 17:12:56;;;;;;;10.93;8.07;;;;;;;19.40;100.00;100196.50;12213898;19;20033;-82
2023/05/08 17:17:02;;;;;;;11.02;8.35;;;;;;;19.32;100.00;100187.63;12226804;19;20006;-81
2023/05/08 17:21:03;;;;;;;9.85;7.85;;;;;;;19.29;100.00;100188.22;12229355;19;20006;-81
2023/05/08 17:25:07;;;;;;;13.65;8.02;;;;;;;19.18;100.00;100195.06;12202182;19;20019;-81
2023/05/08 17:29:09;;;;;;;13.82;8.70;;;;;;;18.95;100.00;100185.56;12223770;19;20034;-81
2023/05/08 17:33:11;;;;;;;11.02;8.40;;;;;;;18.79;100.00;100178.47;12218850;19;20018;-81
2023/05/08 17:37:13;;;;;;;11.30;8.30;;;;;;;18.62;100.00;100182.53;12200808;19;20014;-81
2023/05/08 17:41:15;;;;;;;10.30;7.82;;;;;;;18.52;100.00;100188.22;12231343;19;20017;-83
2023/05/08 17:45:18;;;;;;;10.50;7.80;;;;;;;18.47;100.00;100185.44;12234054;19;20017;-83
2023/05/08 17:49:21;;;;;;;10.95;8.57;;;;;;;18.40;100.00;100196.97;12233829;19;20160;-82
2023/05/08 17:53:23;;;;;;;12.02;7.45;;;;;;;18.31;100.00;100192.31;12231823;19;20003;-83
2023/05/08 17:57:25;;;;;;;11.10;8.43;;;;;;;18.17;100.00;100201.38;12210174;19;19999;-83
2023/05/08 18:01:28;;;;;;;13.65;8.68;;;;;;;18.03;100.00;100197.56;12225253;19;20100;-81
2023/05/08 18:05:30;;;;;;;12.00;8.15;;;;;;;17.93;100.00;100204.03;12220896;19;20078;-81
2023/05/08 18:09:32;;;;;;;11.17;8.60;;;;;;;17.84;100.00;100205.75;12201023;19;20010;-82
2023/05/08 18:13:34;;;;;;;12.43;8.48;;;;;;;17.74;100.00;100195.47;12217783;19;20015;-81
2023/05/08 18:17:36;;;;;;;10.18;7.80;;;;;;;17.60;100.00;100200.00;12218139;19;20014;-83
2023/05/08 18:21:39;;;;;;;12.50;7.97;;;;;;;17.47;100.00;100187.56;12196459;19;20000;-81
2023/05/08 18:25:41;;;;;;;14.73;8.10;;;;;;;17.33;100.00;100191.25;12219875;19;20031;-82
2023/05/08 18:29:43;;;;;;;11.15;8.43;;;;;;;17.17;100.00;100202.47;12223068;19;20037;-81
2023/05/08 18:33:45;;;;;;;13.73;8.60;;;;;;;17.06;100.00;100195.25;12200059;19;20016;-82
2023/05/08 18:37:47;;;;;;;13.50;9.45;;;;;;;16.93;100.00;100196.69;12220713;19;20037;-83
2023/05/08 18:41:49;;;;;;;13.55;9.60;;;;;;;16.82;100.00;100206.19;12216440;19;20661;-81
2023/05/08 18:45:52;;;;;;;12.27;8.68;;;;;;;16.72;100.00;100201.44;12185239;19;20002;-82
2023/05/08 18:49:56;;;;;;;13.88;9.13;;;;;;;16.65;100.00;100200.88;12220668;19;20025;-83
2023/05/08 18:53:58;;;;;;;;;;;;;;;16.51;100.00;100197.84;12223974;19;20010;-80
2023/05/08 18:58:00;;;;;;;13.20;8.75;;;;;;;16.39;100.00;100203.72;12201682;19;19907;-81
2023/05/08 19:02:02;;;;;;;12.40;9.03;;;;;;;16.29;100.00;100214.81;12221347;19;20014;-80
2023/05/08 19:06:04;;;;;;;15.43;10.60;;;;;;;16.13;100.00;100211.19;12225373;19;20608;-82
2023/05/08 19:10:07;;;;;;;12.95;9.90;;;;;;;15.99;100.00;100214.81;12201150;19;20017;-81
2023/05/08 19:14:08;;;;;;;14.50;9.20;;;;;;;15.83;100.00;100214.78;12220955;19;20010;-82